Time;durP1;ratioP1;P1;durP2;ratioP2;P2;SDS_P1;SDS_P2;PMS_P1;PMS_P2;Temp;Humidity;BMP_temperature;BMP_pressure;BME280_temperature;BME280_humidity;BME280_pressure;Samples;Min_cycle;Max_cycle;Signal;HPM_P1;HPM_P2
2022/07/24 00:01:18;;;;;;;9.43;2.90;;;25.00;76.40;;;;;;4209439;28;20089;-64
2022/07/24 00:03:19;;;;;;;16.08;3.55;;;25.00;76.70;;;;;;4210320;28;20484;-64
2022/07/24 00:05:21;;;;;;;7.82;3.20;;;25.00;77.00;;;;;;4208656;28;20058;-65
2022/07/24 00:07:22;;;;;;;10.02;3.65;;;24.90;77.00;;;;;;4210147;28;20037;-63
2022/07/24 00:09:23;;;;;;;13.23;2.88;;;24.90;77.20;;;;;;4209161;28;20447;-64
2022/07/24 00:11:25;;;;;;;5.35;3.25;;;24.90;77.30;;;;;;4209678;28;20040;-66
2022/07/24 00:13:26;;;;;;;9.68;3.63;;;24.90;77.60;;;;;;4209609;28;20452;-66
2022/07/24 00:15:27;;;;;;;8.55;3.22;;;24.90;77.70;;;;;;4209429;28;20854;-64
2022/07/24 00:17:28;;;;;;;14.32;3.85;;;24.90;77.80;;;;;;4213301;28;20032;-63
2022/07/24 00:19:29;;;;;;;9.18;3.47;;;24.90;78.00;;;;;;4212095;28;20028;-65
2022/07/24 00:21:30;;;;;;;10.40;3.05;;;24.90;78.30;;;;;;4213354;28;20446;-64
2022/07/24 00:23:32;;;;;;;9.25;3.40;;;24.90;78.60;;;;;;4212385;28;20086;-63
2022/07/24 00:25:33;;;;;;;6.47;2.95;;;24.80;79.00;;;;;;4213729;28;20036;-64
2022/07/24 00:27:34;;;;;;;8.27;3.30;;;24.80;79.30;;;;;;4212111;28;20065;-65
2022/07/24 00:29:35;;;;;;;4.85;3.40;;;24.80;79.50;;;;;;4213113;28;20032;-64
2022/07/24 00:31:36;;;;;;;12.45;3.58;;;24.80;79.70;;;;;;4212088;28;20024;-65
2022/07/24 00:33:38;;;;;;;10.60;3.83;;;24.80;79.90;;;;;;4213147;28;20040;-65
2022/07/24 00:35:39;;;;;;;9.52;3.13;;;24.80;80.00;;;;;;4211904;28;20541;-64
2022/07/24 00:37:40;;;;;;;14.73;3.15;;;24.70;80.00;;;;;;4212787;28;20101;-65
2022/07/24 00:39:41;;;;;;;8.68;3.15;;;24.80;80.20;;;;;;4212163;28;20074;-65
2022/07/24 00:41:42;;;;;;;11.00;3.50;;;24.70;80.30;;;;;;4212229;28;20036;-67
2022/07/24 00:44:09;;;;;;;10.35;3.70;;;24.70;80.30;;;;;;4212867;28;20036;-63
2022/07/24 00:46:10;;;;;;;7.88;3.08;;;24.80;81.00;;;;;;4212430;28;20036;-65
2022/07/24 00:48:11;;;;;;;8.02;3.53;;;24.70;80.60;;;;;;4212283;28;20464;-65
2022/07/24 00:50:12;;;;;;;10.13;3.58;;;24.70;80.80;;;;;;4211908;28;20032;-65
2022/07/24 00:52:13;;;;;;;11.93;3.72;;;24.70;80.90;;;;;;4212863;28;20054;-64
2022/07/24 00:54:16;;;;;;;6.80;3.70;;;24.70;81.00;;;;;;4212277;28;20028;-65
2022/07/24 00:56:17;;;;;;;14.82;3.58;;;24.60;81.00;;;;;;4213126;28;20105;-68
2022/07/24 00:58:18;;;;;;;6.53;3.22;;;24.60;81.20;;;;;;4211608;28;20069;-67
2022/07/24 01:00:21;;;;;;;10.75;3.67;;;24.60;81.20;;;;;;4212947;28;20028;-65
2022/07/24 01:02:22;;;;;;;5.30;2.80;;;24.60;81.50;;;;;;4211651;28;20040;-64
2022/07/24 01:04:23;;;;;;;7.70;3.80;;;24.60;81.50;;;;;;4212417;28;20031;-68
2022/07/24 01:06:24;;;;;;;8.18;3.80;;;24.60;81.60;;;;;;4211537;28;20085;-68
2022/07/24 01:08:26;;;;;;;9.07;3.33;;;24.60;81.60;;;;;;4212457;28;20048;-68
2022/07/24 01:10:27;;;;;;;7.40;3.10;;;24.60;81.90;;;;;;4211748;28;20040;-68
2022/07/24 01:12:33;;;;;;;7.65;3.75;;;24.50;82.70;;;;;;4212489;28;20526;-64
2022/07/24 01:14:34;;;;;;;7.78;3.35;;;24.50;82.30;;;;;;4211758;28;20036;-67
2022/07/24 01:16:36;;;;;;;9.15;3.80;;;24.50;82.40;;;;;;4212310;28;20028;-66
2022/07/24 01:18:37;;;;;;;10.68;3.53;;;24.40;82.50;;;;;;4211797;28;20434;-64
2022/07/24 01:20:39;;;;;;;8.95;3.80;;;24.40;82.80;;;;;;4211498;28;20040;-68
2022/07/24 01:22:40;;;;;;;8.57;4.15;;;24.30;83.00;;;;;;4210672;28;20188;-67
2022/07/24 01:24:41;;;;;;;10.27;3.95;;;24.30;83.10;;;;;;4211648;28;20078;-66
2022/07/24 01:26:43;;;;;;;12.95;4.43;;;24.30;83.30;;;;;;4212233;28;20422;-63
2022/07/24 01:28:44;;;;;;;6.07;3.13;;;24.30;83.40;;;;;;4210650;28;20054;-64
2022/07/24 01:30:46;;;;;;;9.98;4.15;;;24.30;83.40;;;;;;4212387;28;20113;-64
2022/07/24 01:32:47;;;;;;;8.63;3.38;;;24.30;83.70;;;;;;4210745;28;20069;-63
2022/07/24 01:34:48;;;;;;;5.75;3.35;;;24.20;83.70;;;;;;4212436;28;20085;-64
2022/07/24 01:36:50;;;;;;;5.88;3.20;;;24.20;83.90;;;;;;4210873;28;20089;-64
2022/07/24 01:38:51;;;;;;;6.88;3.47;;;24.20;84.20;;;;;;4212127;28;20024;-65
2022/07/24 01:40:53;;;;;;;5.65;3.40;;;24.20;84.40;;;;;;4210682;28;20441;-66
2022/07/24 01:42:54;;;;;;;5.32;3.40;;;24.10;84.60;;;;;;4212122;28;20764;-64
2022/07/24 01:44:55;;;;;;;8.15;3.75;;;24.10;85.00;;;;;;4210704;28;20044;-63
2022/07/24 01:46:56;;;;;;;8.27;4.38;;;24.00;85.20;;;;;;4211817;28;20085;-63
2022/07/24 01:48:57;;;;;;;6.70;3.47;;;24.00;86.10;;;;;;4211354;28;20040;-64
2022/07/24 01:50:59;;;;;;;7.50;3.60;;;23.90;85.70;;;;;;4211410;28;20508;-65
2022/07/24 01:53:01;;;;;;;8.70;3.85;;;23.90;85.80;;;;;;4211231;28;20077;-65
2022/07/24 01:55:03;;;;;;;9.43;3.83;;;23.90;86.10;;;;;;4211307;28;20043;-68
2022/07/24 01:57:04;;;;;;;9.70;3.80;;;23.90;86.20;;;;;;4211657;28;20039;-65
2022/07/24 01:59:06;;;;;;;5.28;3.70;;;23.90;86.30;;;;;;4210697;28;20466;-68
2022/07/24 02:01:07;;;;;;;6.35;3.47;;;23.80;86.50;;;;;;4211886;28;20470;-67
2022/07/24 02:03:08;;;;;;;6.63;3.80;;;23.80;86.60;;;;;;4210721;28;20044;-64
2022/07/24 02:05:12;;;;;;;10.82;3.78;;;23.80;86.70;;;;;;4211562;28;20085;-64
2022/07/24 02:07:13;;;;;;;10.95;4.55;;;23.80;86.90;;;;;;4210387;28;20097;-67
2022/07/24 02:09:15;;;;;;;10.18;3.80;;;23.80;86.90;;;;;;4211861;28;20109;-65
2022/07/24 02:11:18;;;;;;;11.00;3.92;;;23.80;87.20;;;;;;4210433;28;20021;-63
2022/07/24 02:13:19;;;;;;;5.78;3.90;;;23.80;87.40;;;;;;4211591;28;20016;-63
2022/07/24 02:15:20;;;;;;;9.45;3.50;;;23.70;87.70;;;;;;4210261;28;20074;-64
2022/07/24 02:17:21;;;;;;;5.25;3.58;;;23.70;87.80;;;;;;4211391;28;20051;-64
2022/07/24 02:19:24;;;;;;;8.25;3.80;;;23.70;88.00;;;;;;4210283;28;20434;-64
2022/07/24 02:21:25;;;;;;;4.18;3.42;;;23.70;88.20;;;;;;4211410;28;20044;-67
2022/07/24 02:23:26;;;;;;;7.32;3.50;;;23.70;88.80;;;;;;4210844;28;20028;-63
2022/07/24 02:25:27;;;;;;;25.70;4.93;;;23.60;88.30;;;;;;4210936;28;20016;-64
2022/07/24 02:27:28;;;;;;;8.45;4.07;;;23.70;88.50;;;;;;4211368;28;20044;-66
2022/07/24 02:29:30;;;;;;;10.32;3.92;;;23.60;88.70;;;;;;4210290;28;20028;-67
2022/07/24 02:31:31;;;;;;;9.85;4.00;;;23.60;88.80;;;;;;4210987;28;20090;-64
2022/07/24 02:33:32;;;;;;;9.13;3.72;;;23.60;88.90;;;;;;4210474;28;20101;-64
2022/07/24 02:35:34;;;;;;;4.03;3.47;;;23.60;88.90;;;;;;4211283;28;20628;-64
2022/07/24 02:37:37;;;;;;;6.10;3.60;;;23.60;88.90;;;;;;4210013;28;20031;-63
2022/07/24 02:39:38;;;;;;;9.63;3.40;;;23.60;88.90;;;;;;4211382;28;20136;-64
2022/07/24 02:41:39;;;;;;;8.25;4.18;;;23.50;88.90;;;;;;4209900;28;20093;-64
2022/07/24 02:43:41;;;;;;;6.05;3.75;;;23.50;89.10;;;;;;4211283;28;20399;-67
2022/07/24 02:45:43;;;;;;;5.40;3.22;;;23.50;89.40;;;;;;4210010;28;20492;-64
2022/07/24 02:47:52;;;;;;;7.50;3.42;;;23.50;89.70;;;;;;4211236;28;20044;-67
2022/07/24 02:49:53;;;;;;;7.95;4.25;;;23.40;90.30;;;;;;4209753;28;20035;-63
2022/07/24 02:51:54;;;;;;;5.68;3.40;;;23.40;90.10;;;;;;4210900;28;20418;-64
2022/07/24 02:53:55;;;;;;;7.40;3.75;;;23.40;90.10;;;;;;4210257;28;20454;-64
2022/07/24 02:55:57;;;;;;;8.48;3.70;;;23.30;90.20;;;;;;4210988;28;20106;-64
2022/07/24 02:57:58;;;;;;;6.82;3.85;;;23.40;90.20;;;;;;4210034;28;20044;-65
2022/07/24 02:59:59;;;;;;;4.13;3.28;;;23.30;90.30;;;;;;4210086;28;20365;-63
2022/07/24 03:02:00;;;;;;;6.85;4.07;;;23.30;90.50;;;;;;4210743;28;20545;-65
2022/07/24 03:04:02;;;;;;;8.80;3.97;;;23.30;90.60;;;;;;4209901;28;20528;-63
2022/07/24 03:06:04;;;;;;;5.25;3.35;;;23.20;90.70;;;;;;4210499;28;20093;-64
2022/07/24 03:08:05;;;;;;;9.73;3.85;;;23.20;90.80;;;;;;4209420;28;20048;-66
2022/07/24 03:10:08;;;;;;;6.13;4.18;;;23.20;91.00;;;;;;4210752;28;20085;-64
2022/07/24 03:12:10;;;;;;;10.98;4.70;;;23.10;91.10;;;;;;4209481;28;20028;-65
2022/07/24 03:14:11;;;;;;;7.32;4.03;;;23.10;91.20;;;;;;4210740;28;20031;-64
2022/07/24 03:16:12;;;;;;;7.63;3.90;;;23.10;91.40;;;;;;4209237;28;20082;-65
2022/07/24 03:18:13;;;;;;;8.32;3.92;;;23.00;91.50;;;;;;4210918;28;20043;-67
2022/07/24 03:20:14;;;;;;;9.60;4.22;;;23.00;91.80;;;;;;4209073;28;20035;-64
2022/07/24 03:22:15;;;;;;;4.63;4.00;;;23.00;91.60;;;;;;4210572;28;20505;-65
2022/07/24 03:24:17;;;;;;;17.02;4.93;;;23.00;91.70;;;;;;4209436;28;20085;-66
2022/07/24 03:26:18;;;;;;;7.38;3.80;;;23.00;91.80;;;;;;4211074;28;20040;-64
2022/07/24 03:28:19;;;;;;;5.85;4.03;;;23.00;91.80;;;;;;4209542;28;20040;-64
2022/07/24 03:30:21;;;;;;;9.80;4.25;;;23.10;91.70;;;;;;4209808;28;20078;-64
2022/07/24 03:32:22;;;;;;;4.95;3.95;;;23.10;91.60;;;;;;4210237;28;20028;-65
2022/07/24 03:34:23;;;;;;;12.05;4.43;;;23.10;91.50;;;;;;4209379;28;20069;-68
2022/07/24 03:36:24;;;;;;;5.88;3.72;;;23.10;91.40;;;;;;4210147;28;20032;-65
2022/07/24 03:38:25;;;;;;;9.50;3.17;;;23.20;91.20;;;;;;4209371;28;20028;-65
2022/07/24 03:40:27;;;;;;;7.85;4.20;;;23.20;91.10;;;;;;4210142;28;20117;-65
2022/07/24 03:42:28;;;;;;;7.65;4.20;;;23.30;90.90;;;;;;4209116;28;20089;-65
2022/07/24 03:44:29;;;;;;;12.45;4.35;;;23.40;90.80;;;;;;4210775;28;20028;-64
2022/07/24 03:46:30;;;;;;;5.63;4.07;;;23.40;90.80;;;;;;4209225;28;20077;-67
2022/07/24 03:48:32;;;;;;;5.97;3.90;;;23.40;91.00;;;;;;4210302;28;20040;-65
2022/07/24 03:50:33;;;;;;;5.65;3.47;;;23.40;91.10;;;;;;4209505;28;20058;-67
2022/07/24 03:52:34;;;;;;;8.57;4.70;;;23.30;91.20;;;;;;4213734;28;20032;-67
2022/07/24 03:54:35;;;;;;;7.68;3.67;;;23.40;91.30;;;;;;4212985;28;20088;-68
2022/07/24 03:56:36;;;;;;;10.80;4.53;;;23.40;91.30;;;;;;4214115;28;20032;-67
2022/07/24 03:58:38;;;;;;;11.88;4.00;;;23.40;91.30;;;;;;4212894;28;20082;-65
2022/07/24 04:00:39;;;;;;;8.90;4.20;;;23.70;91.20;;;;;;4212999;28;20082;-68
2022/07/24 04:02:41;;;;;;;8.27;3.97;;;24.10;90.90;;;;;;4212697;28;20089;-67
2022/07/24 04:04:42;;;;;;;7.68;3.90;;;24.30;90.80;;;;;;4212683;28;20040;-69
2022/07/24 04:06:43;;;;;;;10.10;4.35;;;24.70;90.50;;;;;;4213248;28;20484;-66
2022/07/24 04:08:46;;;;;;;8.68;3.67;;;25.10;90.00;;;;;;4212438;28;20474;-68
2022/07/24 04:10:48;;;;;;;6.57;3.63;;;25.50;89.00;;;;;;4213470;28;20585;-67
2022/07/24 04:12:49;;;;;;;12.27;4.50;;;25.90;87.90;;;;;;4212417;28;20036;-67
2022/07/24 04:14:50;;;;;;;6.68;3.42;;;26.30;86.70;;;;;;4213600;28;20081;-63
2022/07/24 04:16:51;;;;;;;8.50;3.85;;;26.50;85.80;;;;;;4212309;28;20113;-64
2022/07/24 04:18:52;;;;;;;5.60;3.70;;;27.00;85.50;;;;;;4213578;28;20097;-64
2022/07/24 04:20:54;;;;;;;12.40;3.88;;;27.50;83.40;;;;;;4212276;28;20078;-64
2022/07/24 04:22:55;;;;;;;12.88;3.60;;;28.10;82.00;;;;;;4213355;28;20053;-64
2022/07/24 04:24:56;;;;;;;4.00;3.58;;;28.60;80.80;;;;;;4212287;28;20020;-63
2022/07/24 04:26:57;;;;;;;8.15;3.40;;;29.10;79.50;;;;;;4213492;28;20032;-64
2022/07/24 04:28:58;;;;;;;5.63;3.70;;;29.70;78.30;;;;;;4212171;28;20476;-67
2022/07/24 04:31:00;;;;;;;7.57;3.65;;;30.10;77.00;;;;;;4212838;28;20357;-65
2022/07/24 04:33:01;;;;;;;10.48;3.80;;;30.40;76.10;;;;;;4212740;28;20094;-64
2022/07/24 04:35:03;;;;;;;8.82;3.50;;;30.70;75.10;;;;;;4212251;28;20310;-66
2022/07/24 04:37:05;;;;;;;8.40;3.50;;;30.90;74.60;;;;;;4213019;28;20069;-65
2022/07/24 04:39:06;;;;;;;6.32;3.67;;;31.00;74.20;;;;;;4212107;28;20020;-64
2022/07/24 04:41:07;;;;;;;7.50;3.47;;;31.10;73.80;;;;;;4212717;28;20039;-65
2022/07/24 04:43:08;;;;;;;7.28;3.65;;;31.20;73.30;;;;;;4211937;28;20036;-64
2022/07/24 04:45:10;;;;;;;8.15;3.53;;;31.00;73.10;;;;;;4213027;28;20032;-64
2022/07/24 04:47:11;;;;;;;9.75;3.67;;;31.20;72.90;;;;;;4211701;28;20070;-64
2022/07/24 04:49:12;;;;;;;5.78;3.72;;;31.20;72.40;;;;;;4212886;28;20077;-64
2022/07/24 04:51:13;;;;;;;8.88;3.60;;;31.30;72.00;;;;;;4211900;28;20446;-65
2022/07/24 04:53:15;;;;;;;7.75;3.60;;;31.50;71.60;;;;;;4212977;28;20480;-64
2022/07/24 04:55:16;;;;;;;5.53;3.33;;;31.70;71.20;;;;;;4211592;28;20024;-66
2022/07/24 04:57:17;;;;;;;10.60;3.58;;;32.00;70.60;;;;;;4213157;28;20044;-67
2022/07/24 04:59:18;;;;;;;6.05;3.90;;;32.20;70.20;;;;;;4211781;28;20069;-64
2022/07/24 05:01:19;;;;;;;9.23;3.92;;;32.60;69.50;;;;;;4212368;28;20036;-64
2022/07/24 05:03:20;;;;;;;5.10;3.72;;;32.90;68.90;;;;;;4210541;28;20176;-64
2022/07/24 05:05:21;;;;;;;6.63;3.05;;;33.10;68.20;;;;;;4211875;28;20044;-65
2022/07/24 05:07:23;;;;;;;8.52;3.53;;;33.40;67.60;;;;;;4212268;28;20054;-65
2022/07/24 05:09:24;;;;;;;9.23;3.15;;;33.50;66.80;;;;;;4211524;28;20052;-65
2022/07/24 05:11:25;;;;;;;7.97;3.25;;;33.40;66.60;;;;;;4212395;28;20036;-65
2022/07/24 05:13:26;;;;;;;6.40;3.20;;;33.40;66.30;;;;;;4211362;28;20036;-66
2022/07/24 05:15:27;;;;;;;7.70;2.90;;;33.40;66.10;;;;;;4212682;28;20040;-68
2022/07/24 05:17:28;;;;;;;6.60;3.05;;;33.60;65.90;;;;;;4211359;28;20055;-66
2022/07/24 05:19:30;;;;;;;9.57;3.45;;;33.30;65.70;;;;;;4212380;28;20057;-65
2022/07/24 05:21:32;;;;;;;3.75;3.10;;;33.40;65.70;;;;;;4211315;28;20032;-68
2022/07/24 05:23:33;;;;;;;5.22;3.40;;;33.20;65.70;;;;;;4212438;28;20097;-66
2022/07/24 05:25:34;;;;;;;7.35;2.70;;;33.30;65.70;;;;;;4211215;28;20012;-65
2022/07/24 05:27:36;;;;;;;4.72;3.00;;;33.60;65.40;;;;;;4211470;28;20597;-66
2022/07/24 05:29:37;;;;;;;8.93;3.42;;;33.60;65.10;;;;;;4210959;28;20085;-66
2022/07/24 05:31:38;;;;;;;7.50;3.38;;;34.00;64.80;;;;;;4211992;28;20464;-66
2022/07/24 05:33:39;;;;;;;7.25;2.97;;;34.40;64.20;;;;;;4211466;28;20423;-64
2022/07/24 05:35:41;;;;;;;6.40;3.15;;;34.70;63.60;;;;;;4211306;28;20489;-64
2022/07/24 05:37:42;;;;;;;5.53;3.00;;;35.00;63.60;;;;;;4211441;28;20043;-65
2022/07/24 05:39:43;;;;;;;4.90;2.80;;;35.40;63.30;;;;;;4210973;28;20107;-68
2022/07/24 05:41:44;;;;;;;6.10;2.83;;;35.20;62.90;;;;;;4212072;28;20032;-65
2022/07/24 05:43:45;;;;;;;4.70;2.80;;;35.20;63.10;;;;;;4210870;28;20040;-66
2022/07/24 05:45:46;;;;;;;11.65;3.10;;;35.00;63.20;;;;;;4211928;28;20032;-68
2022/07/24 05:47:48;;;;;;;5.30;2.85;;;34.80;63.20;;;;;;4211043;28;20558;-65
2022/07/24 05:49:49;;;;;;;11.68;3.28;;;34.70;63.20;;;;;;4211748;28;20074;-64
2022/07/24 05:51:50;;;;;;;7.82;2.88;;;34.60;63.10;;;;;;4210759;28;20052;-64
2022/07/24 05:53:51;;;;;;;8.20;3.08;;;34.80;63.00;;;;;;4211650;28;20036;-66
2022/07/24 05:55:53;;;;;;;9.10;3.40;;;34.50;62.70;;;;;;4210565;28;20058;-66
2022/07/24 05:57:55;;;;;;;10.85;3.17;;;33.40;63.20;;;;;;4212072;28;20101;-68
2022/07/24 05:59:56;;;;;;;6.28;3.00;;;33.60;63.80;;;;;;4210947;28;20093;-68
2022/07/24 06:01:59;;;;;;;5.85;2.92;;;34.00;63.40;;;;;;4211536;28;20024;-65
2022/07/24 06:04:00;;;;;;;8.32;3.30;;;34.10;63.20;;;;;;4210697;28;20480;-65
2022/07/24 06:06:03;;;;;;;7.38;3.47;;;34.10;62.80;;;;;;4211073;28;20522;-67
2022/07/24 06:08:04;;;;;;;4.40;3.00;;;34.10;62.60;;;;;;4210772;28;20480;-67
2022/07/24 06:10:06;;;;;;;6.95;2.95;;;34.30;62.50;;;;;;4210394;28;20426;-67
2022/07/24 06:12:07;;;;;;;6.45;2.78;;;33.60;62.50;;;;;;4209938;28;20105;-64
2022/07/24 06:14:08;;;;;;;6.88;2.80;;;33.40;62.90;;;;;;4210040;28;20085;-65
2022/07/24 06:16:10;;;;;;;8.10;3.20;;;33.30;63.20;;;;;;4211254;28;20149;-66
2022/07/24 06:18:11;;;;;;;7.10;2.88;;;33.30;63.20;;;;;;4209985;28;20085;-64
2022/07/24 06:20:12;;;;;;;8.65;4.05;;;33.20;63.30;;;;;;4211474;28;20032;-65
2022/07/24 06:22:13;;;;;;;9.50;3.58;;;32.80;63.40;;;;;;4209981;28;20342;-65
2022/07/24 06:24:15;;;;;;;9.18;3.08;;;32.30;64.10;;;;;;4211310;28;20442;-64
2022/07/24 06:26:16;;;;;;;12.40;3.78;;;32.30;64.80;;;;;;4210121;28;20032;-65
2022/07/24 06:28:17;;;;;;;8.18;3.25;;;32.10;64.90;;;;;;4211293;28;20039;-66
2022/07/24 06:30:21;;;;;;;8.88;3.88;;;32.00;65.10;;;;;;4209805;28;20069;-64
2022/07/24 06:32:22;;;;;;;10.55;3.53;;;32.10;65.10;;;;;;4210753;28;20016;-66
2022/07/24 06:34:24;;;;;;;10.27;3.33;;;32.30;65.00;;;;;;4210014;28;20548;-69
2022/07/24 06:36:25;;;;;;;10.13;3.65;;;32.40;64.50;;;;;;4210897;28;20028;-68
2022/07/24 06:38:26;;;;;;;8.15;3.50;;;32.30;64.50;;;;;;4210031;28;20043;-65
2022/07/24 06:40:28;;;;;;;9.48;3.80;;;32.20;64.80;;;;;;4210335;28;20020;-66
2022/07/24 06:42:29;;;;;;;6.50;3.22;;;32.60;64.30;;;;;;4209341;28;20040;-64
2022/07/24 06:44:33;;;;;;;12.93;3.75;;;32.60;64.10;;;;;;4209599;28;20032;-64
2022/07/24 06:46:34;;;;;;;7.40;3.70;;;32.60;63.80;;;;;;4210685;28;20024;-63
2022/07/24 06:48:35;;;;;;;7.15;3.20;;;32.40;64.20;;;;;;4209440;28;20419;-65
2022/07/24 06:50:36;;;;;;;7.70;3.60;;;32.20;64.30;;;;;;4210551;28;20426;-64
2022/07/24 06:52:38;;;;;;;17.83;4.35;;;32.00;64.70;;;;;;4209725;28;20509;-63
2022/07/24 06:54:39;;;;;;;6.80;3.55;;;32.20;64.70;;;;;;4210927;28;20021;-64
2022/07/24 06:56:40;;;;;;;10.77;4.03;;;32.10;64.70;;;;;;4209849;28;20065;-64
2022/07/24 06:58:41;;;;;;;3.65;2.97;;;32.10;64.70;;;;;;4211152;28;20032;-66
2022/07/24 07:00:42;;;;;;;4.47;3.40;;;32.20;64.90;;;;;;4209818;28;20427;-67
2022/07/24 07:02:44;;;;;;;9.05;3.17;;;32.30;64.70;;;;;;4210725;28;20036;-69
2022/07/24 07:04:46;;;;;;;15.32;4.45;;;32.10;64.80;;;;;;4208881;28;20073;-65
2022/07/24 07:06:47;;;;;;;12.65;4.50;;;32.00;65.00;;;;;;4210542;28;20036;-74
2022/07/24 07:08:49;;;;;;;25.73;7.00;;;32.00;65.30;;;;;;4209162;28;20513;-65
2022/07/24 07:10:50;;;;;;;10.48;4.50;;;31.70;65.40;;;;;;4211314;28;20032;-72
2022/07/24 07:12:51;;;;;;;15.98;4.70;;;31.70;65.60;;;;;;4214230;28;20036;-65
2022/07/24 07:14:52;;;;;;;10.40;4.97;;;31.40;66.00;;;;;;4209041;28;20442;-69
2022/07/24 07:16:53;;;;;;;35.15;15.15;;;31.70;65.90;;;;;;4210111;28;20036;-68
2022/07/24 07:18:56;;;;;;;14.85;6.55;;;31.80;65.80;;;;;;4208826;28;20353;-67
2022/07/24 07:20:57;;;;;;;21.02;7.95;;;31.60;66.20;;;;;;4210114;28;20105;-72
2022/07/24 07:22:58;;;;;;;9.35;4.07;;;31.80;65.90;;;;;;4208961;28;20032;-67
2022/07/24 07:25:00;;;;;;;22.83;8.50;;;31.40;65.90;;;;;;4210132;28;20036;-66
2022/07/24 07:27:01;;;;;;;16.55;5.53;;;31.00;66.60;;;;;;4215335;28;20541;-67
2022/07/24 07:29:02;;;;;;;8.98;3.25;;;30.80;66.80;;;;;;4227757;28;20084;-65
2022/07/24 07:31:04;;;;;;;10.75;5.35;;;30.50;67.10;;;;;;4226086;28;20035;-67
2022/07/24 07:33:05;;;;;;;8.38;3.40;;;30.40;67.50;;;;;;4227226;28;20020;-68
2022/07/24 07:35:07;;;;;;;7.72;4.20;;;30.20;67.80;;;;;;4225328;28;20176;-68
2022/07/24 07:37:08;;;;;;;13.30;4.68;;;29.90;68.40;;;;;;4226934;28;20104;-70
2022/07/24 07:39:09;;;;;;;22.08;7.97;;;29.90;69.00;;;;;;4211708;28;20407;-66
2022/07/24 07:41:11;;;;;;;5.07;3.33;;;29.90;69.10;;;;;;4209337;28;20040;-67
2022/07/24 07:43:13;;;;;;;10.05;3.78;;;30.00;68.80;;;;;;4215192;28;20069;-66
2022/07/24 07:45:14;;;;;;;9.02;4.45;;;30.00;68.50;;;;;;4225750;28;20028;-69
2022/07/24 07:47:15;;;;;;;13.00;3.72;;;29.70;69.10;;;;;;4226401;28;20039;-71
2022/07/24 07:49:16;;;;;;;9.70;3.90;;;29.90;68.50;;;;;;4225338;28;20031;-73
2022/07/24 07:51:17;;;;;;;5.00;3.65;;;29.90;68.60;;;;;;4226707;28;20103;-65
2022/07/24 07:53:19;;;;;;;16.15;4.60;;;29.80;68.80;;;;;;4225512;28;20069;-73
2022/07/24 07:55:20;;;;;;;8.75;3.90;;;29.70;69.00;;;;;;4226765;28;20032;-64
2022/07/24 07:57:21;;;;;;;15.95;7.07;;;29.50;69.40;;;;;;4225067;28;20433;-68
2022/07/24 07:59:22;;;;;;;8.57;3.83;;;29.30;69.90;;;;;;4226676;28;20035;-72
2022/07/24 08:01:23;;;;;;;8.80;4.60;;;29.30;70.30;;;;;;4225831;28;20040;-66
2022/07/24 08:03:24;;;;;;;4.90;3.30;;;29.20;70.60;;;;;;4225370;28;20081;-72
2022/07/24 08:05:25;;;;;;;8.50;3.47;;;29.20;70.70;;;;;;4225484;28;20096;-64
2022/07/24 08:07:27;;;;;;;9.48;4.97;;;29.20;70.80;;;;;;4210965;28;20040;-68
2022/07/24 08:09:28;;;;;;;11.95;4.72;;;29.20;71.00;;;;;;4209339;28;20048;-64
2022/07/24 08:11:29;;;;;;;8.02;3.75;;;29.20;71.00;;;;;;4201306;28;20093;-68
2022/07/24 08:13:30;;;;;;;9.70;3.90;;;29.20;71.00;;;;;;4209043;28;20373;-70
2022/07/24 08:15:31;;;;;;;6.82;3.83;;;29.10;71.10;;;;;;4208996;28;20048;-67
2022/07/24 08:17:32;;;;;;;7.57;4.20;;;29.00;71.20;;;;;;4209274;28;20036;-67
2022/07/24 08:19:34;;;;;;;6.47;4.25;;;28.90;71.40;;;;;;4208160;28;20474;-67
2022/07/24 08:21:37;;;;;;;7.53;4.57;;;28.80;71.70;;;;;;4209391;28;20036;-66
2022/07/24 08:23:38;;;;;;;6.55;3.72;;;28.70;72.00;;;;;;4208484;28;20055;-68
2022/07/24 08:25:39;;;;;;;5.15;3.50;;;28.60;71.90;;;;;;4209919;28;20020;-67
2022/07/24 08:27:40;;;;;;;6.95;3.95;;;28.40;71.90;;;;;;4207875;28;20040;-70
2022/07/24 08:29:42;;;;;;;5.88;3.92;;;28.30;72.10;;;;;;4209951;28;20040;-67
2022/07/24 08:31:43;;;;;;;8.30;4.10;;;28.10;72.70;;;;;;4208813;28;20497;-67
2022/07/24 08:33:44;;;;;;;8.18;3.70;;;27.90;73.40;;;;;;4209826;28;20058;-66
2022/07/24 08:35:45;;;;;;;12.80;4.28;;;27.70;73.70;;;;;;4208581;28;20036;-67
2022/07/24 08:37:46;;;;;;;11.25;3.90;;;27.50;74.00;;;;;;4211946;28;20036;-69
2022/07/24 08:39:48;;;;;;;15.27;4.53;;;27.50;74.50;;;;;;4211479;28;20089;-70
2022/07/24 08:41:49;;;;;;;12.32;4.03;;;27.50;74.60;;;;;;4211933;28;20097;-67
2022/07/24 08:43:50;;;;;;;5.38;3.47;;;27.50;74.80;;;;;;4213545;28;20096;-70
2022/07/24 08:45:54;;;;;;;7.50;4.43;;;27.40;75.10;;;;;;4212118;28;20036;-65
2022/07/24 08:47:56;;;;;;;6.05;3.70;;;27.40;75.40;;;;;;4211933;28;20036;-65
2022/07/24 08:49:59;;;;;;;12.50;3.83;;;27.40;75.80;;;;;;4210780;28;20040;-64
2022/07/24 08:52:02;;;;;;;7.35;4.07;;;27.40;76.10;;;;;;4211674;28;20085;-65
2022/07/24 08:54:03;;;;;;;5.55;3.97;;;27.40;76.30;;;;;;4199903;28;20043;-66
2022/07/24 08:56:05;;;;;;;7.03;4.15;;;27.40;76.50;;;;;;4209443;28;20078;-65
2022/07/24 08:58:06;;;;;;;6.53;3.78;;;27.40;76.80;;;;;;4211050;28;20052;-66
2022/07/24 09:00:08;;;;;;;4.13;3.72;;;27.40;77.00;;;;;;4212438;28;20032;-66
2022/07/24 09:02:09;;;;;;;6.38;3.80;;;27.50;77.10;;;;;;4210913;28;20032;-67
2022/07/24 09:04:39;;;;;;;11.25;4.00;;;27.50;76.90;;;;;;4211320;28;20020;-66
2022/07/24 09:06:56;;;;;;;6.20;3.25;;;27.50;76.70;;;;;;4209714;28;20028;-66
2022/07/24 09:09:00;;;;;;;5.07;3.53;;;27.50;76.60;;;;;;4211162;28;20056;-68
2022/07/24 09:11:04;;;;;;;10.15;3.67;;;27.60;76.10;;;;;;4209427;28;20024;-66
2022/07/24 09:13:17;;;;;;;6.88;3.00;;;27.60;75.90;;;;;;4211087;28;20037;-66
2022/07/24 09:15:20;;;;;;;7.07;3.30;;;27.70;76.30;;;;;;4209892;28;20387;-66
2022/07/24 09:17:21;;;;;;;22.73;5.68;;;27.70;75.80;;;;;;4211353;28;20036;-67
2022/07/24 09:19:22;;;;;;;4.85;3.85;;;27.90;76.10;;;;;;4209779;28;20052;-67
2022/07/24 09:21:24;;;;;;;50.95;10.20;;;28.00;75.90;;;;;;4211200;28;20564;-65
2022/07/24 09:23:25;;;;;;;45.80;9.43;;;28.00;75.90;;;;;;4210491;28;20036;-67
2022/07/24 09:25:28;;;;;;;30.33;7.68;;;28.20;75.80;;;;;;4211422;28;20534;-67
2022/07/24 09:27:29;;;;;;;5.85;3.80;;;28.40;75.40;;;;;;4216813;28;20141;-68
2022/07/24 09:29:32;;;;;;;3.55;3.25;;;28.60;75.00;;;;;;4228719;28;20035;-69
2022/07/24 09:31:59;;;;;;;11.00;4.07;;;28.70;74.50;;;;;;4216449;28;20139;-67
2022/07/24 09:34:09;;;;;;;4.82;3.65;;;28.90;74.70;;;;;;4211132;28;20028;-67
2022/07/24 09:36:15;;;;;;;7.50;4.20;;;29.10;74.30;;;;;;4214222;28;20028;-67
2022/07/24 09:38:19;;;;;;;5.55;3.20;;;29.20;74.30;;;;;;4227145;28;20044;-67
2022/07/24 09:40:21;;;;;;;4.28;3.17;;;29.40;74.20;;;;;;4226608;28;20099;-68
2022/07/24 09:42:29;;;;;;;4.35;3.20;;;29.50;74.10;;;;;;4227905;28;20020;-66
2022/07/24 09:44:31;;;;;;;4.25;3.30;;;29.50;74.20;;;;;;4227830;28;20077;-67
2022/07/24 09:46:33;;;;;;;4.88;3.67;;;29.60;74.10;;;;;;4228194;28;20523;-69
2022/07/24 09:48:34;;;;;;;7.45;3.30;;;29.70;74.10;;;;;;4227248;27;20083;-66
2022/07/24 09:50:37;;;;;;;4.45;2.83;;;29.80;73.80;;;;;;4225576;28;20096;-70
2022/07/24 09:52:42;;;;;;;4.57;2.92;;;29.70;73.50;;;;;;4211962;28;20492;-69
2022/07/24 09:54:50;;;;;;;9.18;3.15;;;29.60;73.90;;;;;;4210922;28;20048;-67
2022/07/24 09:56:51;;;;;;;7.82;3.20;;;29.80;73.90;;;;;;4211983;28;20044;-68
2022/07/24 09:58:55;;;;;;;7.13;3.78;;;29.80;73.70;;;;;;4209387;28;20105;-67
2022/07/24 10:00:59;;;;;;;2.78;2.58;;;29.90;73.50;;;;;;4213941;28;20052;-66
2022/07/24 10:03:05;;;;;;;4.50;3.50;;;30.00;73.20;;;;;;4226322;28;20062;-63
2022/07/24 10:05:09;;;;;;;4.43;3.22;;;30.10;73.20;;;;;;4228687;28;20031;-66
2022/07/24 10:07:11;;;;;;;4.97;3.53;;;30.10;73.40;;;;;;4226787;27;20035;-67
2022/07/24 10:09:15;;;;;;;3.28;3.05;;;30.10;73.40;;;;;;4226354;28;20043;-66
2022/07/24 10:11:17;;;;;;;4.32;3.40;;;30.10;73.00;;;;;;4227043;28;20080;-67
2022/07/24 10:13:18;;;;;;;3.30;2.78;;;30.20;72.80;;;;;;4228527;28;20031;-66
2022/07/24 10:15:20;;;;;;;6.78;2.85;;;30.20;72.40;;;;;;4227114;28;20035;-66
2022/07/24 10:17:22;;;;;;;3.28;2.33;;;30.10;72.00;;;;;;4228217;28;20032;-71
2022/07/24 10:19:31;;;;;;;3.63;2.78;;;30.10;71.20;;;;;;4212990;28;20024;-66
2022/07/24 10:21:35;;;;;;;3.50;2.88;;;30.10;70.40;;;;;;4211246;28;20048;-67
2022/07/24 10:24:22;;;;;;;11.00;2.70;;;30.10;70.30;;;;;;4210471;28;20021;-71
2022/07/24 10:26:43;;;;;;;12.63;3.88;;;30.10;69.60;;;;;;4198434;28;20044;-67
2022/07/24 10:28:44;;;;;;;13.88;4.05;;;29.90;70.20;;;;;;4209947;28;20105;-66
2022/07/24 10:30:45;;;;;;;5.47;3.28;;;29.80;70.90;;;;;;4211328;28;20461;-65
2022/07/24 10:32:47;;;;;;;4.53;2.70;;;29.90;71.20;;;;;;4210135;28;20039;-66